TimeMST,TemperatureF,Dew PointF,Humidity,Sea Level PressureIn,VisibilityMPH,Wind Direction,Wind SpeedMPH,Gust SpeedMPH,PrecipitationIn,Events,Conditions,WindDirDegrees,DateUTC
12:53 AM,26.1,18.0,71,30.21,10.0,WSW,11.5,-,N/A,,Overcast,240,2013-02-16 07:53:00
1:53 AM,26.1,18.0,71,30.18,10.0,WSW,12.7,-,N/A,,Overcast,250,2013-02-16 08:53:00
2:53 AM,28.9,19.0,67,30.15,10.0,West,13.8,-,N/A,,Overcast,280,2013-02-16 09:53:00
3:53 AM,30.9,19.0,61,30.12,10.0,West,17.3,-,N/A,,Overcast,280,2013-02-16 10:53:00
4:53 AM,33.8,19.4,56,30.03,10.0,West,18.4,-,N/A,,Overcast,280,2013-02-16 11:53:00
5:53 AM,35.1,19.9,54,30.12,10.0,West,17.3,-,N/A,,Overcast,280,2013-02-16 12:53:00
6:53 AM,35.1,19.9,54,30.14,10.0,West,16.1,-,N/A,,Overcast,270,2013-02-16 13:53:00
7:53 AM,37.9,19.9,48,30.13,10.0,WNW,20.7,-,N/A,,Overcast,290,2013-02-16 14:53:00
8:53 AM,39.0,19.9,46,30.13,10.0,WNW,21.9,25.3,N/A,,Partly Cloudy,290,2013-02-16 15:53:00
9:53 AM,45.0,21.0,39,30.08,10.0,WNW,27.6,32.2,N/A,,Clear,300,2013-02-16 16:53:00
10:53 AM,48.9,21.9,35,30.07,10.0,NW,19.6,33.4,N/A,,Clear,310,2013-02-16 17:53:00
11:53 AM,51.1,23.0,33,30.04,10.0,NW,23.0,33.4,N/A,,Partly Cloudy,310,2013-02-16 18:53:00
12:53 PM,52.0,23.0,32,30.01,10.0,NW,16.1,29.9,N/A,,Partly Cloudy,320,2013-02-16 19:53:00
1:53 PM,53.1,23.0,31,29.98,10.0,NW,24.2,33.4,N/A,,Clear,310,2013-02-16 20:53:00
2:53 PM,53.1,23.0,31,29.97,10.0,NW,18.4,31.1,N/A,,Clear,310,2013-02-16 21:53:00
3:53 PM,51.1,23.0,33,29.97,10.0,NNW,18.4,24.2,N/A,,Clear,330,2013-02-16 22:53:00
4:53 PM,48.0,25.0,41,29.96,10.0,WNW,9.2,-,N/A,,Clear,300,2013-02-16 23:53:00
5:53 PM,37.0,23.0,57,29.99,10.0,WNW,9.2,-,N/A,,Clear,290,2013-02-17 00:53:00
6:53 PM,32.0,21.0,64,30.00,10.0,WNW,6.9,-,N/A,,Clear,290,2013-02-17 01:53:00
7:53 PM,28.9,19.9,69,29.98,10.0,West,10.4,-,N/A,,Clear,280,2013-02-17 02:53:00
8:53 PM,26.1,19.0,75,29.99,10.0,WSW,10.4,-,N/A,,Clear,250,2013-02-17 03:53:00
9:53 PM,25.0,18.0,75,29.96,10.0,West,5.8,-,N/A,,Clear,280,2013-02-17 04:53:00
10:53 PM,24.1,18.0,77,29.93,10.0,West,8.1,-,N/A,,Clear,280,2013-02-17 05:53:00
11:53 PM,23.0,18.0,81,29.91,10.0,West,8.1,-,N/A,,Clear,270,2013-02-17 06:53:00